createdAt,value
2023-01-29T00:02:02.952Z,51.83
2023-01-29T00:04:29.357Z,51.47
2023-01-29T00:06:55.730Z,52.43
2023-01-29T00:09:22.070Z,52.08
2023-01-29T00:11:48.445Z,52.06
2023-01-29T00:14:14.840Z,50.72
2023-01-29T00:16:41.310Z,50.05
2023-01-29T00:19:07.735Z,51.02
2023-01-29T00:21:34.089Z,51.26
2023-01-29T00:24:00.554Z,50.77
2023-01-29T00:26:26.957Z,51.51
2023-01-29T00:28:53.295Z,50.38
2023-01-29T00:31:19.772Z,50.19
2023-01-29T00:33:46.195Z,50.22
2023-01-29T00:36:12.592Z,51.25
2023-01-29T00:38:38.944Z,50.66
2023-01-29T00:41:05.291Z,51.11
2023-01-29T00:43:31.703Z,51.59
2023-01-29T00:45:58.097Z,49.50
2023-01-29T00:48:24.485Z,50.47
2023-01-29T00:50:50.872Z,51.25
2023-01-29T00:53:17.264Z,51.29
2023-01-29T00:55:43.621Z,50.62
2023-01-29T00:58:09.958Z,49.89
2023-01-29T01:00:36.315Z,50.22
2023-01-29T01:03:02.694Z,51.77
2023-01-29T01:05:29.074Z,51.59
2023-01-29T01:07:55.465Z,50.68
2023-01-29T01:10:21.885Z,50.50
2023-01-29T01:12:48.301Z,50.59
2023-01-29T01:15:14.663Z,51.31
2023-01-29T01:17:41.049Z,51.33
2023-01-29T01:20:07.446Z,52.02
2023-01-29T01:22:33.827Z,52.71
2023-01-29T01:25:00.207Z,51.82
2023-01-29T01:27:26.565Z,51.63
2023-01-29T01:29:52.971Z,52.00
2023-01-29T01:32:19.318Z,51.23
2023-01-29T01:34:45.655Z,50.53
2023-01-29T01:37:12.000Z,51.55
2023-01-29T01:39:38.358Z,51.30
2023-01-29T01:42:04.755Z,50.39
2023-01-29T01:44:31.175Z,51.44
2023-01-29T01:46:57.517Z,51.59
2023-01-29T01:49:23.907Z,51.74
2023-01-29T01:51:50.299Z,51.90
2023-01-29T01:54:16.665Z,51.28
2023-01-29T01:56:43.025Z,51.25
2023-01-29T01:59:09.385Z,52.12
2023-01-29T02:01:35.737Z,51.65
2023-01-29T02:04:02.135Z,52.06
2023-01-29T02:06:28.517Z,51.21
2023-01-29T02:08:54.902Z,52.13
2023-01-29T02:11:21.266Z,51.04
2023-01-29T02:13:47.761Z,51.51
2023-01-29T02:16:14.124Z,52.04
2023-01-29T02:18:40.508Z,52.20
2023-01-29T02:21:06.850Z,51.36
2023-01-29T02:23:33.236Z,51.01
2023-01-29T02:25:59.633Z,50.69
2023-01-29T02:28:25.989Z,51.26
2023-01-29T02:30:52.422Z,51.52
2023-01-29T02:33:18.810Z,51.80
2023-01-29T02:35:45.189Z,53.07
2023-01-29T02:38:11.550Z,52.73
2023-01-29T02:40:37.890Z,52.37
2023-01-29T02:43:04.235Z,50.61
2023-01-29T02:45:30.716Z,52.03
2023-01-29T02:47:57.110Z,52.14
2023-01-29T02:50:23.503Z,51.60
2023-01-29T02:52:49.897Z,51.48
2023-01-29T02:55:16.261Z,51.01
2023-01-29T02:57:42.631Z,50.13
2023-01-29T03:00:09.034Z,50.56
2023-01-29T03:02:35.417Z,49.75
2023-01-29T03:05:01.782Z,51.25
2023-01-29T03:07:28.158Z,50.90
2023-01-29T03:09:54.555Z,50.97
2023-01-29T03:12:20.947Z,50.60
2023-01-29T03:14:47.379Z,49.15
2023-01-29T03:17:13.781Z,50.71
2023-01-29T03:19:40.139Z,49.57
2023-01-29T03:22:06.501Z,49.48
2023-01-29T03:24:32.888Z,49.72
2023-01-29T03:26:59.287Z,48.61
2023-01-29T03:29:25.642Z,49.03
2023-01-29T03:31:52.051Z,49.29
2023-01-29T03:34:18.426Z,48.40
2023-01-29T03:36:44.769Z,47.13
2023-01-29T03:39:11.110Z,46.67
2023-01-29T03:41:37.445Z,47.66
2023-01-29T03:44:03.789Z,46.92
2023-01-29T03:46:30.140Z,47.58
2023-01-29T03:48:56.579Z,47.16
2023-01-29T03:51:22.984Z,47.92
2023-01-29T03:53:49.373Z,47.29
2023-01-29T03:56:15.725Z,47.99
2023-01-29T03:58:42.078Z,48.20
2023-01-29T04:01:08.465Z,47.78
2023-01-29T04:03:34.915Z,47.45
2023-01-29T04:06:01.275Z,47.74
2023-01-29T04:08:27.636Z,47.10
2023-01-29T04:10:54.019Z,47.44
2023-01-29T04:13:20.392Z,47.17
2023-01-29T04:15:46.752Z,46.27
2023-01-29T04:18:13.103Z,45.94
2023-01-29T04:20:39.446Z,46.17
2023-01-29T04:23:05.789Z,46.19
2023-01-29T04:25:32.198Z,46.39
2023-01-29T04:27:58.582Z,46.23
2023-01-29T04:30:24.950Z,45.50
2023-01-29T04:32:51.327Z,46.66
2023-01-29T04:35:17.683Z,46.88
2023-01-29T04:37:44.075Z,47.73
2023-01-29T04:40:10.467Z,46.90
2023-01-29T04:42:36.888Z,47.30
2023-01-29T04:45:03.233Z,46.60
2023-01-29T04:47:29.746Z,46.68
2023-01-29T04:49:56.101Z,46.56
2023-01-29T04:52:22.440Z,47.63
2023-01-29T04:54:48.829Z,48.25
2023-01-29T04:57:15.186Z,47.65
2023-01-29T04:59:41.530Z,47.33
2023-01-29T05:02:07.926Z,46.48
2023-01-29T05:04:34.350Z,46.09
2023-01-29T05:07:00.705Z,45.48
2023-01-29T05:09:27.103Z,45.70
2023-01-29T05:11:53.506Z,46.33
2023-01-29T05:14:19.898Z,46.36
2023-01-29T05:16:46.302Z,46.35
2023-01-29T05:19:14.269Z,46.38
2023-01-29T05:21:41.234Z,47.14
2023-01-29T05:24:07.692Z,47.18
2023-01-29T05:26:34.114Z,47.76
2023-01-29T05:29:00.504Z,46.10
2023-01-29T05:31:27.003Z,46.41
2023-01-29T05:33:53.455Z,46.08
2023-01-29T05:36:19.854Z,47.09
2023-01-29T05:38:46.209Z,47.89
2023-01-29T05:41:12.588Z,48.16
2023-01-29T05:43:38.990Z,46.95
2023-01-29T05:46:05.336Z,46.62
2023-01-29T05:48:31.704Z,46.58
2023-01-29T05:50:58.047Z,47.21
2023-01-29T05:53:24.440Z,47.70
2023-01-29T05:55:50.848Z,46.55
2023-01-29T05:58:17.212Z,45.84
2023-01-29T06:00:43.596Z,46.41
2023-01-29T06:03:10.064Z,46.56
2023-01-29T06:05:36.448Z,46.65
2023-01-29T06:08:02.826Z,47.27
2023-01-29T06:10:29.232Z,46.48
2023-01-29T06:12:55.621Z,46.24
2023-01-29T06:15:21.966Z,45.68
2023-01-29T06:17:48.357Z,46.16
2023-01-29T06:20:15.182Z,45.83
2023-01-29T06:22:41.827Z,46.55
2023-01-29T06:25:08.182Z,46.37
2023-01-29T06:27:34.579Z,46.22
2023-01-29T06:30:00.981Z,46.46
2023-01-29T06:32:27.471Z,46.68
2023-01-29T06:34:53.853Z,46.57
2023-01-29T06:37:20.206Z,46.42
2023-01-29T06:39:46.592Z,46.77
2023-01-29T06:42:12.951Z,46.33
2023-01-29T06:44:39.322Z,45.76
2023-01-29T06:47:05.717Z,46.07
2023-01-29T06:49:32.088Z,46.56
2023-01-29T06:51:58.474Z,46.50
2023-01-29T06:54:24.881Z,46.36
2023-01-29T06:56:51.234Z,45.83
2023-01-29T06:59:17.575Z,46.89
2023-01-29T07:01:44.139Z,46.45
2023-01-29T07:04:10.601Z,46.62
2023-01-29T07:06:36.995Z,46.24
2023-01-29T07:09:03.388Z,45.75
2023-01-29T07:11:29.784Z,45.80
2023-01-29T07:13:56.190Z,45.43
2023-01-29T07:16:22.574Z,45.43
2023-01-29T07:18:48.971Z,44.93
2023-01-29T07:21:15.392Z,45.46
2023-01-29T07:23:41.761Z,44.90
2023-01-29T07:26:08.133Z,44.94
2023-01-29T07:28:34.480Z,45.91
2023-01-29T07:31:00.890Z,45.90
2023-01-29T07:33:27.272Z,45.12
2023-01-29T07:35:53.622Z,44.90
2023-01-29T07:38:20.010Z,45.88
2023-01-29T07:40:46.360Z,44.62
2023-01-29T07:43:12.748Z,45.12
2023-01-29T07:45:39.160Z,44.52
2023-01-29T07:48:05.596Z,44.52
2023-01-29T07:50:31.995Z,44.78
2023-01-29T07:52:58.392Z,44.62
2023-01-29T07:55:24.783Z,44.41
2023-01-29T07:57:51.162Z,43.98
2023-01-29T08:00:17.775Z,43.73
2023-01-29T08:02:44.289Z,44.15
2023-01-29T08:05:10.648Z,43.91
2023-01-29T08:07:37.028Z,44.23
2023-01-29T08:10:03.404Z,44.33
2023-01-29T08:12:29.756Z,43.96
2023-01-29T08:14:56.099Z,43.90
2023-01-29T08:17:22.480Z,44.94
2023-01-29T08:19:48.872Z,43.51
2023-01-29T08:22:15.230Z,43.98
2023-01-29T08:24:53.571Z,44.82
2023-01-29T08:27:26.347Z,44.55
2023-01-29T08:29:52.757Z,44.58
2023-01-29T08:32:19.170Z,44.46
2023-01-29T08:34:45.521Z,44.38
2023-01-29T08:37:11.858Z,44.92
2023-01-29T08:39:38.211Z,43.30
2023-01-29T08:42:04.576Z,42.82
2023-01-29T08:44:30.982Z,42.62
2023-01-29T08:46:57.397Z,42.32
2023-01-29T08:49:23.769Z,42.10
2023-01-29T08:51:50.114Z,41.97
2023-01-29T08:54:16.538Z,42.77
2023-01-29T08:56:42.928Z,43.60
2023-01-29T08:59:09.298Z,43.01
2023-01-29T09:01:35.676Z,44.10
2023-01-29T09:04:02.032Z,44.01
2023-01-29T09:06:28.406Z,43.24
2023-01-29T09:08:54.781Z,43.53
2023-01-29T09:11:21.160Z,43.12
2023-01-29T09:13:47.512Z,42.45
2023-01-29T09:16:13.895Z,41.70
2023-01-29T09:18:40.284Z,41.78
2023-01-29T09:21:06.682Z,41.19
2023-01-29T09:23:33.032Z,41.03
2023-01-29T09:25:59.378Z,41.09
2023-01-29T09:28:25.726Z,41.33
2023-01-29T09:30:52.172Z,40.64
2023-01-29T09:33:18.606Z,40.68
2023-01-29T09:35:45.014Z,41.94
2023-01-29T09:38:11.404Z,41.76
2023-01-29T09:40:37.770Z,41.61
2023-01-29T09:43:04.168Z,41.41
2023-01-29T09:45:30.526Z,42.25
2023-01-29T09:47:56.893Z,42.10
2023-01-29T09:50:23.279Z,42.32
2023-01-29T09:53:01.974Z,40.81
2023-01-29T09:55:28.338Z,42.69
2023-01-29T09:57:54.734Z,41.84
2023-01-29T10:00:21.090Z,40.99
2023-01-29T10:02:47.430Z,40.89
2023-01-29T10:05:13.768Z,39.90
2023-01-29T10:07:40.152Z,40.37
2023-01-29T10:10:06.528Z,40.22
2023-01-29T10:12:32.913Z,40.30
2023-01-29T10:14:59.305Z,40.28
2023-01-29T10:17:25.796Z,39.86
2023-01-29T10:19:52.169Z,41.09
2023-01-29T10:22:18.512Z,40.97
2023-01-29T10:24:44.915Z,40.54
2023-01-29T10:27:11.322Z,41.41
2023-01-29T10:29:37.678Z,41.64
2023-01-29T10:32:04.102Z,41.37
2023-01-29T10:34:30.561Z,41.54
2023-01-29T10:36:56.919Z,41.57
2023-01-29T10:39:23.319Z,41.26
2023-01-29T10:41:49.703Z,40.77
2023-01-29T10:44:16.086Z,41.24
2023-01-29T10:46:42.478Z,40.61
2023-01-29T10:49:08.873Z,40.15
2023-01-29T10:51:35.270Z,40.90
2023-01-29T10:54:01.622Z,40.91
2023-01-29T10:56:28.013Z,39.67
2023-01-29T10:58:54.423Z,39.96
2023-01-29T11:01:20.811Z,40.24
2023-01-29T11:03:47.216Z,40.01
2023-01-29T11:06:13.609Z,39.29
2023-01-29T11:08:40.005Z,39.06
2023-01-29T11:11:06.352Z,39.49
2023-01-29T11:13:32.732Z,39.05
2023-01-29T11:15:59.094Z,39.57
2023-01-29T11:18:25.487Z,39.75
2023-01-29T11:20:51.881Z,39.71
2023-01-29T11:23:18.231Z,39.83
2023-01-29T11:25:44.627Z,39.84
2023-01-29T11:28:11.070Z,40.63
2023-01-29T11:30:37.576Z,39.93
2023-01-29T11:33:03.944Z,40.50
2023-01-29T11:35:30.332Z,39.27
2023-01-29T11:37:56.753Z,39.16
2023-01-29T11:40:23.103Z,39.42
2023-01-29T11:42:49.488Z,39.42
2023-01-29T11:45:15.837Z,39.71
2023-01-29T11:47:42.229Z,39.73
2023-01-29T11:50:08.625Z,40.20
2023-01-29T11:52:34.981Z,39.20
2023-01-29T11:55:01.375Z,39.80
2023-01-29T11:57:27.768Z,40.47
2023-01-29T11:59:54.181Z,39.56
2023-01-29T12:02:20.545Z,39.01
2023-01-29T12:04:46.942Z,38.61
2023-01-29T12:07:13.339Z,38.10
2023-01-29T12:09:39.702Z,37.66
2023-01-29T12:12:06.086Z,38.08
2023-01-29T12:14:32.466Z,38.36
2023-01-29T12:16:58.868Z,38.42
2023-01-29T12:19:25.219Z,38.32
2023-01-29T12:21:51.562Z,37.46
2023-01-29T12:24:17.917Z,38.68
2023-01-29T12:26:44.417Z,38.04
2023-01-29T12:29:10.849Z,37.42
2023-01-29T12:31:37.258Z,36.91
2023-01-29T12:34:03.672Z,37.57
2023-01-29T12:36:30.045Z,36.75
2023-01-29T12:38:56.438Z,37.45
2023-01-29T12:41:22.844Z,37.18
2023-01-29T12:43:49.234Z,36.06
2023-01-29T12:46:15.601Z,36.34
2023-01-29T12:48:41.952Z,35.76
2023-01-29T12:51:08.303Z,36.44
2023-01-29T12:53:34.652Z,37.20
2023-01-29T12:56:01.047Z,35.92
2023-01-29T12:58:27.432Z,36.10
2023-01-29T13:00:53.853Z,36.59
2023-01-29T13:03:20.335Z,36.75
2023-01-29T13:05:46.735Z,36.66
2023-01-29T13:08:13.129Z,36.88
2023-01-29T13:10:39.545Z,36.80
2023-01-29T13:13:05.942Z,37.02
2023-01-29T13:15:32.344Z,37.49
2023-01-29T13:17:58.712Z,37.72
2023-01-29T13:20:25.117Z,36.46
2023-01-29T13:22:51.479Z,36.40
2023-01-29T13:25:17.859Z,35.92
2023-01-29T13:27:44.224Z,36.95
2023-01-29T13:30:10.568Z,36.50
2023-01-29T13:32:36.947Z,37.20
2023-01-29T13:35:03.301Z,37.98
2023-01-29T13:37:29.658Z,37.99
2023-01-29T13:39:56.000Z,38.83
2023-01-29T13:42:22.346Z,36.54
2023-01-29T13:44:48.745Z,36.37
2023-01-29T13:47:15.144Z,36.34
2023-01-29T13:49:41.547Z,36.01
2023-01-29T13:52:07.992Z,36.15
2023-01-29T13:54:34.394Z,35.74
2023-01-29T13:57:00.784Z,36.47
2023-01-29T13:59:27.185Z,35.67
2023-01-29T14:01:53.539Z,35.46
2023-01-29T14:04:19.932Z,35.42
2023-01-29T14:06:46.307Z,35.87
2023-01-29T14:09:12.684Z,35.56
2023-01-29T14:11:39.033Z,36.45
2023-01-29T14:14:05.418Z,36.58
2023-01-29T14:16:31.824Z,36.01
2023-01-29T14:18:58.173Z,38.08
2023-01-29T14:21:24.543Z,37.49
2023-01-29T14:23:50.924Z,37.52
2023-01-29T14:26:17.422Z,37.70
2023-01-29T14:28:43.810Z,37.51
2023-01-29T14:31:10.226Z,36.99
2023-01-29T14:33:36.622Z,37.29
2023-01-29T14:36:03.011Z,37.33
2023-01-29T14:38:29.445Z,37.96
2023-01-29T14:40:55.851Z,36.96
2023-01-29T14:43:22.209Z,38.52
2023-01-29T14:45:48.676Z,38.75
2023-01-29T14:48:15.110Z,38.55
2023-01-29T14:50:41.497Z,36.90
2023-01-29T14:53:07.866Z,36.77
2023-01-29T14:55:34.288Z,36.29
2023-01-29T14:58:00.655Z,36.41
2023-01-29T15:00:27.006Z,35.82
2023-01-29T15:03:01.368Z,36.04
2023-01-29T15:05:28.467Z,35.84
2023-01-29T15:07:54.848Z,36.46
2023-01-29T15:10:23.095Z,36.16
2023-01-29T15:12:49.838Z,36.36
2023-01-29T15:15:16.565Z,37.00
2023-01-29T15:17:43.047Z,35.98
2023-01-29T15:20:09.399Z,36.53
2023-01-29T15:22:35.746Z,36.65
2023-01-29T15:25:02.157Z,37.40
2023-01-29T15:27:28.524Z,38.50
2023-01-29T15:29:54.909Z,38.25
2023-01-29T15:32:21.272Z,39.47
2023-01-29T15:34:47.664Z,38.96
2023-01-29T15:37:14.108Z,38.54
2023-01-29T15:39:40.513Z,39.27
2023-01-29T15:42:06.981Z,39.04
2023-01-29T15:44:33.344Z,38.69
2023-01-29T15:46:59.760Z,37.11
2023-01-29T15:49:26.192Z,37.11
2023-01-29T15:51:52.551Z,37.43
2023-01-29T15:54:18.897Z,37.19
2023-01-29T15:56:45.288Z,37.01
2023-01-29T15:59:11.678Z,36.46
2023-01-29T16:01:38.108Z,37.43
2023-01-29T16:04:04.541Z,37.28
2023-01-29T16:06:30.978Z,36.27
2023-01-29T16:08:57.353Z,36.12
2023-01-29T16:11:23.715Z,35.91
2023-01-29T16:13:50.110Z,36.76
2023-01-29T16:16:16.771Z,36.90
2023-01-29T16:18:57.884Z,37.27
2023-01-29T16:21:25.499Z,37.34
2023-01-29T16:23:51.852Z,37.58
2023-01-29T16:26:18.222Z,38.75
2023-01-29T16:28:44.572Z,38.94
2023-01-29T16:31:11.092Z,38.07
2023-01-29T16:33:37.629Z,38.20
2023-01-29T16:36:03.989Z,37.84
2023-01-29T16:38:30.738Z,38.79
2023-01-29T16:40:57.128Z,39.22
2023-01-29T16:43:26.202Z,39.98
2023-01-29T16:45:54.671Z,40.52
2023-01-29T16:48:21.138Z,40.24
2023-01-29T16:50:54.975Z,41.50
2023-01-29T16:53:21.861Z,40.32
2023-01-29T16:55:48.351Z,42.10
2023-01-29T16:58:14.919Z,41.77
2023-01-29T17:00:41.403Z,40.80
2023-01-29T17:03:07.765Z,41.46
2023-01-29T17:05:34.175Z,41.96
2023-01-29T17:08:00.631Z,41.42
2023-01-29T17:10:27.003Z,42.37
2023-01-29T17:12:53.397Z,41.81
2023-01-29T17:15:20.143Z,42.31
2023-01-29T17:17:46.616Z,43.55
2023-01-29T17:20:13.171Z,45.25
2023-01-29T17:22:39.795Z,44.74
2023-01-29T17:25:06.350Z,43.82
2023-01-29T17:27:33.208Z,43.38
2023-01-29T17:29:59.641Z,42.28
2023-01-29T17:32:26.123Z,42.01
2023-01-29T17:35:10.847Z,43.04
2023-01-29T17:37:37.492Z,42.39
2023-01-29T17:40:05.408Z,42.70
2023-01-29T17:42:32.010Z,43.21
2023-01-29T17:44:58.529Z,43.26
2023-01-29T17:47:25.040Z,42.46
2023-01-29T17:49:51.443Z,41.86
2023-01-29T17:52:17.789Z,42.09
2023-01-29T17:54:44.297Z,42.70
2023-01-29T17:57:10.833Z,43.34
2023-01-29T17:59:37.509Z,43.35
2023-01-29T18:02:04.217Z,43.06
2023-01-29T18:04:30.664Z,43.33
2023-01-29T18:06:57.099Z,43.14
2023-01-29T18:09:23.476Z,42.71
2023-01-29T18:11:49.813Z,43.34
2023-01-29T18:14:16.160Z,43.97
2023-01-29T18:16:42.538Z,44.20
2023-01-29T18:19:08.947Z,43.89
2023-01-29T18:21:35.331Z,44.36
2023-01-29T18:24:01.724Z,42.52
2023-01-29T18:26:28.142Z,43.21
2023-01-29T18:28:54.599Z,42.85
2023-01-29T18:31:21.012Z,42.00
2023-01-29T18:33:47.438Z,42.81
2023-01-29T18:36:13.852Z,42.82
2023-01-29T18:38:40.275Z,42.75
2023-01-29T18:41:06.669Z,43.04
2023-01-29T18:43:33.065Z,41.94
2023-01-29T18:45:59.455Z,42.64
2023-01-29T18:48:25.823Z,43.04
2023-01-29T18:50:52.170Z,43.67
2023-01-29T18:53:18.534Z,43.75
2023-01-29T18:55:44.920Z,43.67
2023-01-29T18:58:27.203Z,43.71
2023-01-29T19:00:57.709Z,43.22
2023-01-29T19:03:24.104Z,42.32
2023-01-29T19:05:50.499Z,42.99
2023-01-29T19:08:16.863Z,42.64
2023-01-29T19:10:43.198Z,41.85
2023-01-29T19:13:09.585Z,42.49
2023-01-29T19:15:35.937Z,42.76
2023-01-29T19:18:02.285Z,42.46
2023-01-29T19:20:28.684Z,42.30
2023-01-29T19:22:55.042Z,42.73
2023-01-29T19:25:21.578Z,42.17
2023-01-29T19:27:48.158Z,44.23
2023-01-29T19:30:14.589Z,44.09
2023-01-29T19:32:40.983Z,43.72
2023-01-29T19:35:07.389Z,43.30
2023-01-29T19:37:33.749Z,42.76
2023-01-29T19:40:00.119Z,42.71
2023-01-29T19:42:26.508Z,42.23
2023-01-29T19:44:52.912Z,41.50
2023-01-29T19:47:19.372Z,41.98
2023-01-29T19:49:45.922Z,41.69
2023-01-29T19:52:12.333Z,42.32
2023-01-29T19:54:38.733Z,42.12
2023-01-29T19:57:05.200Z,41.78
2023-01-29T19:59:31.590Z,42.42
2023-01-29T20:01:58.020Z,42.10
2023-01-29T20:04:24.425Z,42.45
2023-01-29T20:06:50.820Z,42.13
2023-01-29T20:09:17.230Z,42.22
2023-01-29T20:11:43.615Z,42.00
2023-01-29T20:14:09.969Z,42.46
2023-01-29T20:16:36.333Z,42.50
2023-01-29T20:19:14.544Z,42.09
2023-01-29T20:21:41.419Z,42.20
2023-01-29T20:24:08.268Z,41.88
2023-01-29T20:26:34.836Z,42.05
2023-01-29T20:29:01.277Z,41.88
2023-01-29T20:31:27.681Z,41.72
2023-01-29T20:33:54.061Z,42.14
2023-01-29T20:36:20.454Z,41.66
2023-01-29T20:38:46.824Z,42.21
2023-01-29T20:41:13.225Z,42.23
2023-01-29T20:43:39.634Z,42.25
2023-01-29T20:46:06.053Z,41.82
2023-01-29T20:48:32.460Z,42.26
2023-01-29T20:50:58.841Z,41.52
2023-01-29T20:53:25.231Z,42.07
2023-01-29T20:55:51.747Z,41.58
2023-01-29T20:58:18.237Z,41.69
2023-01-29T21:00:44.609Z,41.87
2023-01-29T21:03:11.048Z,41.42
2023-01-29T21:05:37.415Z,41.43
2023-01-29T21:08:03.779Z,41.37
2023-01-29T21:10:30.127Z,41.66
2023-01-29T21:12:56.496Z,41.88
2023-01-29T21:15:22.835Z,41.96
2023-01-29T21:17:49.198Z,42.14
2023-01-29T21:20:15.782Z,43.00
2023-01-29T21:22:42.297Z,44.52
2023-01-29T21:25:08.676Z,43.67
2023-01-29T21:27:35.038Z,42.94
2023-01-29T21:30:01.452Z,42.49
2023-01-29T21:32:27.815Z,42.54
2023-01-29T21:34:54.219Z,42.89
2023-01-29T21:37:20.574Z,42.05
2023-01-29T21:39:46.926Z,42.09
2023-01-29T21:42:13.317Z,42.97
2023-01-29T21:44:39.671Z,43.36
2023-01-29T21:47:06.013Z,43.71
2023-01-29T21:49:32.395Z,44.69
2023-01-29T21:51:58.755Z,44.27
2023-01-29T21:54:25.104Z,43.82
2023-01-29T21:56:51.451Z,44.07
2023-01-29T21:59:17.833Z,42.59
2023-01-29T22:01:44.248Z,43.92
2023-01-29T22:04:10.613Z,43.83
2023-01-29T22:06:36.973Z,43.04
2023-01-29T22:09:03.319Z,42.54
2023-01-29T22:11:29.798Z,44.03
2023-01-29T22:13:56.185Z,43.31
2023-01-29T22:16:22.583Z,43.16
2023-01-29T22:18:48.944Z,43.46
2023-01-29T22:21:15.301Z,42.87
2023-01-29T22:23:41.677Z,42.92
2023-01-29T22:26:08.073Z,42.65
2023-01-29T22:28:34.461Z,42.86
2023-01-29T22:31:00.800Z,42.19
2023-01-29T22:33:27.203Z,41.70
2023-01-29T22:35:53.603Z,42.00
2023-01-29T22:38:19.970Z,42.58
2023-01-29T22:40:46.365Z,43.37
2023-01-29T22:43:12.772Z,43.59
2023-01-29T22:45:39.164Z,43.12
2023-01-29T22:48:07.183Z,43.04
2023-01-29T22:50:34.499Z,44.54
2023-01-29T22:53:00.881Z,45.81
2023-01-29T22:55:27.283Z,45.65
2023-01-29T22:57:53.696Z,45.76
2023-01-29T23:00:20.339Z,45.16
2023-01-29T23:02:46.790Z,46.43
2023-01-29T23:05:13.130Z,46.42
2023-01-29T23:07:39.528Z,45.17
2023-01-29T23:10:06.995Z,43.65
2023-01-29T23:12:33.503Z,44.09
2023-01-29T23:14:59.899Z,43.73
2023-01-29T23:17:26.254Z,43.91
2023-01-29T23:19:52.643Z,44.50
2023-01-29T23:22:19.037Z,44.73
2023-01-29T23:24:45.394Z,44.17
2023-01-29T23:27:11.781Z,44.66
2023-01-29T23:29:38.133Z,45.40
2023-01-29T23:32:04.525Z,44.79
2023-01-29T23:34:30.923Z,43.31
2023-01-29T23:36:57.308Z,43.03
2023-01-29T23:39:23.703Z,43.72
2023-01-29T23:41:50.066Z,43.27
2023-01-29T23:44:16.434Z,43.43
2023-01-29T23:46:42.838Z,43.20
2023-01-29T23:49:09.208Z,43.43
2023-01-29T23:51:35.603Z,43.04
2023-01-29T23:54:01.966Z,42.77
2023-01-29T23:56:28.315Z,42.82
2023-01-29T23:58:54.663Z,42.89
